Time;durP1;ratioP1;P1;durP2;ratioP2;P2;SDS_P1;SDS_P2;PMS_P1;PMS_P2;Temp;Humidity;BMP_temperature;BMP_pressure;BME280_temperature;BME280_humidity;BME280_pressure;Samples;Min_cycle;Max_cycle;Signal;HPM_P1;HPM_P2
2022/03/06 00:01:37;;;;;;;22.50;18.27;;;;;;;;;;4996489;28;20137;-80
2022/03/06 00:04:03;;;;;;;20.85;18.02;;;;;;;;;;4995993;28;20101;-80
2022/03/06 00:06:29;;;;;;;20.63;17.30;;;;;;;;;;4997909;28;20046;-79
2022/03/06 00:08:58;;;;;;;23.48;18.23;;;;;;;;;;4977861;28;20040;-81
2022/03/06 00:11:24;;;;;;;20.95;18.73;;;;;;;;;;4990979;28;20114;-80
2022/03/06 00:13:50;;;;;;;20.60;18.40;;;;;;;;;;4961342;28;20065;-80
2022/03/06 00:16:17;;;;;;;21.55;19.25;;;;;;;;;;4969755;28;20125;-80
2022/03/06 00:18:43;;;;;;;22.55;18.77;;;;;;;;;;4982729;28;20538;-80
2022/03/06 00:21:09;;;;;;;20.95;18.85;;;;;;;;;;4997179;28;20128;-81
2022/03/06 00:23:37;;;;;;;21.02;18.73;;;;;;;;;;4980083;28;20357;-79
2022/03/06 00:26:03;;;;;;;21.30;18.58;;;;;;;;;;4996448;28;20437;-79
2022/03/06 00:28:30;;;;;;;20.25;18.15;;;;;;;;;;4967336;28;20047;-79
2022/03/06 00:30:56;;;;;;;23.52;19.02;;;;;;;;;;4978772;28;20035;-80
2022/03/06 00:33:22;;;;;;;24.50;20.00;;;;;;;;;;4979331;28;20092;-80
2022/03/06 00:35:48;;;;;;;26.85;21.45;;;;;;;;;;4996446;28;20077;-80
2022/03/06 00:38:14;;;;;;;19.52;17.40;;;;;;;;;;4980007;28;20048;-81
2022/03/06 00:40:41;;;;;;;19.05;17.00;;;;;;;;;;4995454;28;20043;-80
2022/03/06 00:43:08;;;;;;;21.05;17.40;;;;;;;;;;4997517;28;20057;-80
2022/03/06 00:45:33;;;;;;;20.23;17.23;;;;;;;;;;4961415;28;20049;-79
2022/03/06 00:48:01;;;;;;;18.30;15.68;;;;;;;;;;4965733;28;20046;-80
2022/03/06 00:50:28;;;;;;;19.58;17.52;;;;;;;;;;4987668;28;20088;-79
2022/03/06 00:52:56;;;;;;;17.75;15.75;;;;;;;;;;4995949;28;20606;-80
2022/03/06 00:55:22;;;;;;;18.65;15.63;;;;;;;;;;4978091;28;20053;-80
2022/03/06 00:57:48;;;;;;;17.08;14.77;;;;;;;;;;4978856;28;20040;-80
2022/03/06 01:00:14;;;;;;;17.45;15.65;;;;;;;;;;4961527;28;20051;-80
2022/03/06 01:02:40;;;;;;;17.85;15.38;;;;;;;;;;4975714;28;20038;-80
2022/03/06 01:05:07;;;;;;;17.38;14.50;;;;;;;;;;4975431;28;20046;-80
2022/03/06 01:07:33;;;;;;;18.38;15.18;;;;;;;;;;4968425;28;20043;-80
2022/03/06 01:09:59;;;;;;;15.77;14.07;;;;;;;;;;4957670;28;20046;-80
2022/03/06 01:12:25;;;;;;;18.65;14.85;;;;;;;;;;4976373;28;20057;-80
2022/03/06 01:14:51;;;;;;;18.25;15.00;;;;;;;;;;4976001;28;20043;-80
2022/03/06 01:17:17;;;;;;;16.65;14.90;;;;;;;;;;4960043;28;20046;-81
2022/03/06 01:19:43;;;;;;;18.00;14.30;;;;;;;;;;4959478;28;20049;-80
2022/03/06 01:22:09;;;;;;;17.08;14.68;;;;;;;;;;4974614;28;20376;-80
2022/03/06 01:24:35;;;;;;;17.90;13.38;;;;;;;;;;4959654;28;20050;-80
2022/03/06 01:27:00;;;;;;;15.38;13.70;;;;;;;;;;4974028;28;20030;-80
2022/03/06 01:29:26;;;;;;;17.08;15.10;;;;;;;;;;4966292;28;20089;-80
2022/03/06 01:31:52;;;;;;;15.63;13.73;;;;;;;;;;4976033;28;20046;-79
2022/03/06 01:34:18;;;;;;;15.55;13.77;;;;;;;;;;4960443;28;20165;-80
2022/03/06 01:36:44;;;;;;;16.08;13.13;;;;;;;;;;4969290;28;20321;-80
2022/03/06 01:39:10;;;;;;;16.58;13.57;;;;;;;;;;4959664;28;20045;-80
2022/03/06 01:41:36;;;;;;;13.57;11.65;;;;;;;;;;4963151;28;20178;-80
2022/03/06 01:44:03;;;;;;;14.20;12.18;;;;;;;;;;4977335;28;20038;-80
2022/03/06 01:46:29;;;;;;;16.00;11.88;;;;;;;;;;4972686;28;20097;-80
2022/03/06 01:48:55;;;;;;;13.63;11.68;;;;;;;;;;4978419;28;20165;-80
2022/03/06 01:51:21;;;;;;;13.10;11.60;;;;;;;;;;4961120;28;20042;-80
2022/03/06 01:53:47;;;;;;;13.60;11.23;;;;;;;;;;4977737;28;20612;-80
2022/03/06 01:56:14;;;;;;;13.95;11.25;;;;;;;;;;4978928;28;20050;-80
2022/03/06 01:58:41;;;;;;;12.85;10.98;;;;;;;;;;4968181;28;20112;-80
2022/03/06 02:01:07;;;;;;;16.67;11.27;;;;;;;;;;4977096;28;20081;-80
2022/03/06 02:03:33;;;;;;;12.55;10.32;;;;;;;;;;4963626;28;20100;-80
2022/03/06 02:05:59;;;;;;;14.57;11.52;;;;;;;;;;4964234;28;20058;-80
2022/03/06 02:08:25;;;;;;;12.38;10.75;;;;;;;;;;4973370;28;20042;-80
2022/03/06 02:10:53;;;;;;;13.35;10.88;;;;;;;;;;4972158;28;20034;-80
2022/03/06 02:13:19;;;;;;;13.27;10.75;;;;;;;;;;4975939;28;20038;-80
2022/03/06 02:15:46;;;;;;;12.75;11.40;;;;;;;;;;4966574;28;20117;-79
2022/03/06 02:18:12;;;;;;;12.52;9.77;;;;;;;;;;4975374;28;20070;-80
2022/03/06 02:20:38;;;;;;;13.57;9.82;;;;;;;;;;4964881;28;20566;-79
2022/03/06 02:23:04;;;;;;;11.95;9.65;;;;;;;;;;4978759;28;20046;-80
2022/03/06 02:25:31;;;;;;;13.18;10.38;;;;;;;;;;4969997;28;21508;-80
2022/03/06 02:27:58;;;;;;;11.65;10.43;;;;;;;;;;4972645;28;20037;-79
2022/03/06 02:30:25;;;;;;;11.30;9.38;;;;;;;;;;4977939;28;20065;-79
2022/03/06 02:32:52;;;;;;;11.80;10.13;;;;;;;;;;4979085;28;20042;-79
2022/03/06 02:35:19;;;;;;;14.48;10.82;;;;;;;;;;4961731;28;20043;-80
2022/03/06 02:37:45;;;;;;;10.32;9.13;;;;;;;;;;4978148;28;20038;-79
2022/03/06 02:40:12;;;;;;;11.32;9.77;;;;;;;;;;4977896;28;20042;-79
2022/03/06 02:42:41;;;;;;;12.20;9.90;;;;;;;;;;4980895;28;20042;-80
2022/03/06 02:45:11;;;;;;;15.23;10.25;;;;;;;;;;4977712;28;20061;-79
2022/03/06 02:47:37;;;;;;;12.80;9.45;;;;;;;;;;4970489;28;20515;-79
2022/03/06 02:50:05;;;;;;;13.15;9.65;;;;;;;;;;4978511;28;20056;-80
2022/03/06 02:52:31;;;;;;;13.43;9.90;;;;;;;;;;4977343;28;20074;-79
2022/03/06 02:54:57;;;;;;;10.35;9.25;;;;;;;;;;4950279;28;20078;-80
2022/03/06 02:57:23;;;;;;;11.43;10.23;;;;;;;;;;4976696;28;20034;-80
2022/03/06 02:59:49;;;;;;;13.68;9.43;;;;;;;;;;4953358;28;20539;-80
2022/03/06 03:02:15;;;;;;;11.68;10.00;;;;;;;;;;4972269;28;20046;-80
2022/03/06 03:04:41;;;;;;;13.77;9.63;;;;;;;;;;4962491;28;20463;-80
2022/03/06 03:07:10;;;;;;;12.85;9.50;;;;;;;;;;4961822;28;20051;-80
2022/03/06 03:09:36;;;;;;;11.35;10.13;;;;;;;;;;4962208;28;20038;-80
2022/03/06 03:12:02;;;;;;;11.57;8.90;;;;;;;;;;4981008;28;20041;-80
2022/03/06 03:14:32;;;;;;;12.05;9.52;;;;;;;;;;4967948;28;20484;-80
2022/03/06 03:16:58;;;;;;;12.50;9.23;;;;;;;;;;4961445;28;20046;-80
2022/03/06 03:19:24;;;;;;;10.98;7.82;;;;;;;;;;4987033;28;20073;-80
2022/03/06 03:21:50;;;;;;;9.93;7.57;;;;;;;;;;4984082;28;20053;-80
2022/03/06 03:24:16;;;;;;;11.02;7.57;;;;;;;;;;4962481;28;20042;-80
2022/03/06 03:26:42;;;;;;;10.60;7.45;;;;;;;;;;4977845;28;20074;-80
2022/03/06 03:29:08;;;;;;;8.52;6.90;;;;;;;;;;4986443;28;20705;-80
2022/03/06 03:31:34;;;;;;;11.93;7.05;;;;;;;;;;4977409;28;20165;-80
2022/03/06 03:34:00;;;;;;;9.98;6.78;;;;;;;;;;4976816;28;20041;-80
2022/03/06 03:36:26;;;;;;;8.88;7.05;;;;;;;;;;4960576;28;20164;-80
2022/03/06 03:38:52;;;;;;;21.23;12.70;;;;;;;;;;4974072;28;20043;-80
2022/03/06 03:41:18;;;;;;;11.40;8.25;;;;;;;;;;4973473;28;20050;-80
2022/03/06 03:43:44;;;;;;;10.05;7.43;;;;;;;;;;4976786;28;20539;-80
2022/03/06 03:46:10;;;;;;;12.88;7.63;;;;;;;;;;4976719;28;20046;-80
2022/03/06 03:48:36;;;;;;;16.40;10.30;;;;;;;;;;4960415;28;20125;-80
2022/03/06 03:51:03;;;;;;;14.95;9.40;;;;;;;;;;4976903;28;20500;-80
2022/03/06 03:53:29;;;;;;;11.07;7.20;;;;;;;;;;4972041;28;20791;-80
2022/03/06 03:55:54;;;;;;;11.38;8.70;;;;;;;;;;4972246;28;20050;-80
2022/03/06 03:58:21;;;;;;;12.15;7.35;;;;;;;;;;4984249;28;20051;-80
2022/03/06 04:00:51;;;;;;;9.75;7.38;;;;;;;;;;4969404;28;20060;-80
2022/03/06 04:03:17;;;;;;;9.88;7.47;;;;;;;;;;4977054;28;20050;-80
2022/03/06 04:05:43;;;;;;;10.18;7.15;;;;;;;;;;4976591;28;20054;-80
2022/03/06 04:08:09;;;;;;;11.50;9.20;;;;;;;;;;4982315;28;20047;-80
2022/03/06 04:10:35;;;;;;;9.13;7.05;;;;;;;;;;4977483;28;20054;-80
2022/03/06 04:13:01;;;;;;;10.13;7.38;;;;;;;;;;4976430;28;20038;-80
2022/03/06 04:15:27;;;;;;;18.77;10.48;;;;;;;;;;4977408;28;20080;-80
2022/03/06 04:17:53;;;;;;;11.63;7.85;;;;;;;;;;4972232;28;20041;-80
2022/03/06 04:20:19;;;;;;;12.15;8.52;;;;;;;;;;4975219;28;20197;-80
2022/03/06 04:22:45;;;;;;;16.75;10.82;;;;;;;;;;4976092;28;20045;-80
2022/03/06 04:25:11;;;;;;;16.23;10.35;;;;;;;;;;4966352;28;20034;-80
2022/03/06 04:27:37;;;;;;;11.25;7.90;;;;;;;;;;4975978;28;20060;-80
2022/03/06 04:30:04;;;;;;;10.70;7.15;;;;;;;;;;4974036;28;20042;-80
2022/03/06 04:32:30;;;;;;;9.88;8.13;;;;;;;;;;4956298;28;20123;-80
2022/03/06 04:34:56;;;;;;;11.60;8.13;;;;;;;;;;4975914;28;20480;-80
2022/03/06 04:37:22;;;;;;;21.55;12.38;;;;;;;;;;4975405;28;20038;-80
2022/03/06 04:39:48;;;;;;;15.30;10.02;;;;;;;;;;4963636;28;20043;-80
2022/03/06 04:42:14;;;;;;;12.68;8.63;;;;;;;;;;4976670;28;20076;-80
2022/03/06 04:44:40;;;;;;;13.70;8.27;;;;;;;;;;4975338;28;20042;-80
2022/03/06 04:47:06;;;;;;;9.52;7.13;;;;;;;;;;4976213;28;20038;-80
2022/03/06 04:49:32;;;;;;;9.85;6.55;;;;;;;;;;4976030;28;20100;-80
2022/03/06 04:51:58;;;;;;;6.93;6.20;;;;;;;;;;4976906;28;20038;-80
2022/03/06 04:54:25;;;;;;;10.05;6.97;;;;;;;;;;4958780;28;20034;-80
2022/03/06 04:56:51;;;;;;;12.82;8.52;;;;;;;;;;4976693;28;20042;-80
2022/03/06 04:59:17;;;;;;;9.48;6.45;;;;;;;;;;4976261;28;20046;-80
2022/03/06 05:01:43;;;;;;;10.70;7.65;;;;;;;;;;4977703;28;20038;-81
2022/03/06 05:04:10;;;;;;;11.38;7.53;;;;;;;;;;4976548;28;20046;-80
2022/03/06 05:06:36;;;;;;;9.02;6.10;;;;;;;;;;4976589;28;20050;-80
2022/03/06 05:09:03;;;;;;;20.25;12.05;;;;;;;;;;4974326;28;20428;-80
2022/03/06 05:11:29;;;;;;;10.30;6.85;;;;;;;;;;4970582;28;20098;-80
2022/03/06 05:13:55;;;;;;;7.50;5.88;;;;;;;;;;4974859;28;20573;-80
2022/03/06 05:16:21;;;;;;;10.35;7.32;;;;;;;;;;4970868;28;20480;-80
2022/03/06 05:18:47;;;;;;;13.15;8.73;;;;;;;;;;4961427;28;20039;-80
2022/03/06 05:21:13;;;;;;;12.73;7.45;;;;;;;;;;4977659;28;20045;-80
2022/03/06 05:23:39;;;;;;;10.85;6.28;;;;;;;;;;4980546;28;20046;-80
2022/03/06 05:26:05;;;;;;;10.18;6.43;;;;;;;;;;4982928;28;20407;-80
2022/03/06 05:28:31;;;;;;;10.98;5.80;;;;;;;;;;4977584;28;20066;-80
2022/03/06 05:30:57;;;;;;;6.30;5.63;;;;;;;;;;4978406;28;20038;-81
2022/03/06 05:33:23;;;;;;;8.23;6.22;;;;;;;;;;4971385;28;20045;-81
2022/03/06 05:35:49;;;;;;;9.23;5.78;;;;;;;;;;4977480;28;20077;-81
2022/03/06 05:38:15;;;;;;;7.60;5.68;;;;;;;;;;4980409;28;20050;-80
2022/03/06 05:40:41;;;;;;;10.15;5.45;;;;;;;;;;4976722;28;20039;-81
2022/03/06 05:43:07;;;;;;;8.35;6.05;;;;;;;;;;4979347;28;20511;-80
2022/03/06 05:45:33;;;;;;;7.60;5.70;;;;;;;;;;4976825;28;20046;-80
2022/03/06 05:47:59;;;;;;;8.82;6.25;;;;;;;;;;4964039;28;20044;-81
2022/03/06 05:50:25;;;;;;;8.75;5.45;;;;;;;;;;4966131;28;20046;-80
2022/03/06 05:52:51;;;;;;;8.50;6.03;;;;;;;;;;4980182;28;20093;-80
2022/03/06 05:55:18;;;;;;;8.15;5.22;;;;;;;;;;4979145;28;20125;-80
2022/03/06 05:57:44;;;;;;;9.07;5.47;;;;;;;;;;4979630;28;20122;-81
2022/03/06 06:00:11;;;;;;;7.10;5.53;;;;;;;;;;4963914;28;20046;-81
2022/03/06 06:02:37;;;;;;;9.85;5.22;;;;;;;;;;4972849;28;20503;-81
2022/03/06 06:05:07;;;;;;;8.20;5.80;;;;;;;;;;4978941;28;20038;-80
2022/03/06 06:07:33;;;;;;;10.45;6.35;;;;;;;;;;4978970;28;20057;-80
2022/03/06 06:09:59;;;;;;;8.02;6.18;;;;;;;;;;4963419;28;20039;-80
2022/03/06 06:12:26;;;;;;;8.95;5.55;;;;;;;;;;4962433;28;20038;-81
2022/03/06 06:14:52;;;;;;;9.13;6.10;;;;;;;;;;4972295;28;20034;-81
2022/03/06 06:17:18;;;;;;;5.88;5.20;;;;;;;;;;4961748;28;20046;-81
2022/03/06 06:19:44;;;;;;;8.48;5.72;;;;;;;;;;4977773;28;20392;-81
2022/03/06 06:22:10;;;;;;;6.43;5.00;;;;;;;;;;4977786;28;20057;-81
2022/03/06 06:24:36;;;;;;;6.97;5.38;;;;;;;;;;4978874;28;20041;-81
2022/03/06 06:27:02;;;;;;;6.68;5.10;;;;;;;;;;4982451;28;20039;-81
2022/03/06 06:29:28;;;;;;;10.32;5.80;;;;;;;;;;4982018;28;20034;-81
2022/03/06 06:31:54;;;;;;;6.40;5.45;;;;;;;;;;4984421;28;20642;-80
2022/03/06 06:34:20;;;;;;;9.27;5.05;;;;;;;;;;4960075;28;20041;-81
2022/03/06 06:36:47;;;;;;;6.25;4.97;;;;;;;;;;4972713;28;20050;-81
2022/03/06 06:39:13;;;;;;;7.00;5.20;;;;;;;;;;4976394;28;20093;-81
2022/03/06 06:41:42;;;;;;;6.43;4.97;;;;;;;;;;4977792;28;20042;-80
2022/03/06 06:44:09;;;;;;;7.35;4.95;;;;;;;;;;4977143;28;20092;-80
2022/03/06 06:46:35;;;;;;;7.30;5.45;;;;;;;;;;4961005;28;20524;-81
2022/03/06 06:49:03;;;;;;;6.35;4.30;;;;;;;;;;4977267;28;20129;-80
2022/03/06 06:51:29;;;;;;;5.25;4.57;;;;;;;;;;4977540;28;20038;-80
2022/03/06 06:53:56;;;;;;;7.63;4.75;;;;;;;;;;4961715;28;20046;-80
2022/03/06 06:56:21;;;;;;;6.90;4.78;;;;;;;;;;4966228;28;20057;-80
2022/03/06 06:58:47;;;;;;;7.18;4.88;;;;;;;;;;4977760;28;20046;-80
2022/03/06 07:01:15;;;;;;;8.02;5.30;;;;;;;;;;4977035;28;20057;-80
2022/03/06 07:03:41;;;;;;;5.60;4.60;;;;;;;;;;4972800;28;20043;-81
2022/03/06 07:06:07;;;;;;;5.80;3.95;;;;;;;;;;4969728;28;20050;-81
2022/03/06 07:08:33;;;;;;;8.63;4.38;;;;;;;;;;4980103;28;20061;-80
2022/03/06 07:10:59;;;;;;;5.55;3.95;;;;;;;;;;4974496;28;20384;-80
2022/03/06 07:13:25;;;;;;;5.35;4.15;;;;;;;;;;4961222;28;20043;-81
2022/03/06 07:15:51;;;;;;;6.57;4.30;;;;;;;;;;4977070;28;20125;-81
2022/03/06 07:18:17;;;;;;;7.40;3.90;;;;;;;;;;4975754;28;20105;-80
2022/03/06 07:20:43;;;;;;;6.38;3.80;;;;;;;;;;4975111;28;20476;-81
2022/03/06 07:23:09;;;;;;;7.90;4.05;;;;;;;;;;4977259;28;20046;-81
2022/03/06 07:25:36;;;;;;;5.15;3.70;;;;;;;;;;4976324;28;20047;-81
2022/03/06 07:28:02;;;;;;;5.10;3.70;;;;;;;;;;4969067;28;20043;-81
2022/03/06 07:30:28;;;;;;;6.25;3.47;;;;;;;;;;4970901;28;20039;-81
2022/03/06 07:32:54;;;;;;;5.15;3.65;;;;;;;;;;4968810;28;20031;-81
2022/03/06 07:35:21;;;;;;;3.78;3.45;;;;;;;;;;4955976;28;20042;-81
2022/03/06 07:37:47;;;;;;;3.75;3.20;;;;;;;;;;4970773;28;20038;-80
2022/03/06 07:40:14;;;;;;;3.33;3.03;;;;;;;;;;4976537;28;20042;-80
2022/03/06 07:42:40;;;;;;;5.47;3.67;;;;;;;;;;4975474;28;20148;-80
2022/03/06 07:45:07;;;;;;;5.15;3.25;;;;;;;;;;4975577;28;20046;-80
2022/03/06 07:47:33;;;;;;;6.07;3.35;;;;;;;;;;4974929;28;20034;-80
2022/03/06 07:49:59;;;;;;;3.55;3.00;;;;;;;;;;4973102;28;20039;-80
2022/03/06 07:52:25;;;;;;;4.40;3.13;;;;;;;;;;4986441;28;20038;-81
2022/03/06 07:54:51;;;;;;;5.15;3.40;;;;;;;;;;4960311;28;20092;-80
2022/03/06 07:57:17;;;;;;;4.20;3.40;;;;;;;;;;4960531;28;20050;-80
2022/03/06 07:59:43;;;;;;;4.38;3.25;;;;;;;;;;4973260;28;20484;-80
2022/03/06 08:02:09;;;;;;;4.68;2.88;;;;;;;;;;4974542;28;20058;-80
2022/03/06 08:04:35;;;;;;;5.57;2.85;;;;;;;;;;4976644;28;20046;-80
2022/03/06 08:07:01;;;;;;;4.18;3.17;;;;;;;;;;4976457;28;20078;-80
2022/03/06 08:09:27;;;;;;;2.88;2.67;;;;;;;;;;4960943;28;20042;-82
2022/03/06 08:11:53;;;;;;;5.38;2.95;;;;;;;;;;4977662;28;20030;-81
2022/03/06 08:14:19;;;;;;;3.65;2.75;;;;;;;;;;4960059;28;20129;-81
2022/03/06 08:16:46;;;;;;;4.30;3.05;;;;;;;;;;4979639;28;20042;-81
2022/03/06 08:19:12;;;;;;;3.55;2.53;;;;;;;;;;4980592;28;20046;-81
2022/03/06 08:21:39;;;;;;;3.58;2.95;;;;;;;;;;4968725;28;20108;-81
2022/03/06 08:24:05;;;;;;;3.15;2.85;;;;;;;;;;4984547;28;20050;-81
2022/03/06 08:26:31;;;;;;;3.75;2.80;;;;;;;;;;4959607;28;20038;-81
2022/03/06 08:28:57;;;;;;;2.75;2.42;;;;;;;;;;4976266;28;20042;-77
2022/03/06 08:31:23;;;;;;;5.10;2.70;;;;;;;;;;4974269;28;20345;-77
2022/03/06 08:33:49;;;;;;;3.38;2.67;;;;;;;;;;4973094;28;20054;-77
2022/03/06 08:36:15;;;;;;;5.82;2.90;;;;;;;;;;4952285;28;20050;-77
2022/03/06 08:38:41;;;;;;;4.10;2.58;;;;;;;;;;4974044;28;20400;-77
2022/03/06 08:41:07;;;;;;;2.78;2.50;;;;;;;;;;4956982;28;20043;-77
2022/03/06 08:43:33;;;;;;;3.03;2.42;;;;;;;;;;4964245;28;20047;-77
2022/03/06 08:45:59;;;;;;;3.40;2.40;;;;;;;;;;4970979;28;20131;-77
2022/03/06 08:48:25;;;;;;;4.00;2.35;;;;;;;;;;4941743;28;20050;-77
2022/03/06 08:50:51;;;;;;;3.10;1.98;;;;;;;;;;4967046;28;20062;-77
2022/03/06 08:53:18;;;;;;;3.15;2.38;;;;;;;;;;4972505;28;20038;-77
2022/03/06 08:55:44;;;;;;;3.08;2.47;;;;;;;;;;4964004;28;20034;-77
2022/03/06 08:58:10;;;;;;;2.42;1.90;;;;;;;;;;4970895;28;20100;-77
2022/03/06 09:00:36;;;;;;;3.25;2.20;;;;;;;;;;4965423;28;20047;-77
2022/03/06 09:03:02;;;;;;;3.08;2.40;;;;;;;;;;4968879;28;20038;-78
2022/03/06 09:05:28;;;;;;;4.38;2.65;;;;;;;;;;4954545;28;20404;-78
2022/03/06 09:07:54;;;;;;;4.28;2.30;;;;;;;;;;4974915;28;20456;-77
2022/03/06 09:10:20;;;;;;;2.88;2.13;;;;;;;;;;4974441;28;20056;-78
2022/03/06 09:12:46;;;;;;;4.68;2.38;;;;;;;;;;4957521;28;20030;-78
2022/03/06 09:15:12;;;;;;;2.38;2.10;;;;;;;;;;4974459;28;20125;-77
2022/03/06 09:17:38;;;;;;;2.97;2.00;;;;;;;;;;4955226;28;20129;-77
2022/03/06 09:20:05;;;;;;;4.32;2.83;;;;;;;;;;4949681;28;20038;-77
2022/03/06 09:22:31;;;;;;;5.40;2.47;;;;;;;;;;4974403;28;20050;-77
2022/03/06 09:24:57;;;;;;;3.38;2.30;;;;;;;;;;4974281;28;20046;-77
2022/03/06 09:27:23;;;;;;;3.03;2.15;;;;;;;;;;4974348;28;20045;-76
2022/03/06 09:29:49;;;;;;;3.05;2.17;;;;;;;;;;4972626;28;20034;-77
2022/03/06 09:32:15;;;;;;;3.80;2.33;;;;;;;;;;4957536;28;20380;-77
2022/03/06 09:34:42;;;;;;;4.25;2.53;;;;;;;;;;4968032;28;20047;-76
2022/03/06 09:37:08;;;;;;;4.65;2.13;;;;;;;;;;4966919;28;20043;-76
2022/03/06 09:39:34;;;;;;;3.70;2.60;;;;;;;;;;4966298;28;20391;-76
2022/03/06 09:42:01;;;;;;;3.83;2.38;;;;;;;;;;4978041;28;20496;-76
2022/03/06 09:44:27;;;;;;;4.05;2.38;;;;;;;;;;4960380;28;20053;-76
2022/03/06 09:46:56;;;;;;;2.63;2.17;;;;;;;;;;4958460;28;20388;-76
2022/03/06 09:49:23;;;;;;;6.05;2.50;;;;;;;;;;4959339;28;20042;-76
2022/03/06 09:51:49;;;;;;;3.05;2.22;;;;;;;;;;4965529;28;20144;-76
2022/03/06 09:54:16;;;;;;;3.53;2.20;;;;;;;;;;4967358;28;20050;-76
2022/03/06 09:56:42;;;;;;;2.90;2.10;;;;;;;;;;4953836;28;20473;-76
2022/03/06 09:59:09;;;;;;;5.03;2.20;;;;;;;;;;4970923;28;20133;-76
2022/03/06 10:01:35;;;;;;;4.82;2.42;;;;;;;;;;4980587;28;20046;-77
2022/03/06 10:04:20;;;;;;;3.80;1.90;;;;;;;;;;4975837;28;20388;-76
2022/03/06 10:07:12;;;;;;;4.63;2.30;;;;;;;;;;4974650;28;20640;-76
2022/03/06 10:09:44;;;;;;;4.47;2.85;;;;;;;;;;4973288;28;20101;-76
2022/03/06 10:12:19;;;;;;;2.63;2.33;;;;;;;;;;4976602;28;20049;-76
2022/03/06 10:14:46;;;;;;;3.63;2.13;;;;;;;;;;4960592;28;20046;-76
2022/03/06 10:17:15;;;;;;;5.90;2.83;;;;;;;;;;4976308;28;20042;-76
2022/03/06 10:19:56;;;;;;;2.70;2.30;;;;;;;;;;4957113;28;20046;-76
2022/03/06 10:22:23;;;;;;;2.72;2.45;;;;;;;;;;4972251;28;20399;-76
2022/03/06 10:24:50;;;;;;;6.13;2.30;;;;;;;;;;4966417;28;20041;-76
2022/03/06 10:27:17;;;;;;;4.40;2.40;;;;;;;;;;4969834;28;20058;-76
2022/03/06 10:29:43;;;;;;;4.47;2.65;;;;;;;;;;4969539;28;20514;-76
2022/03/06 10:32:09;;;;;;;4.95;2.75;;;;;;;;;;4967748;28;20101;-76
2022/03/06 10:34:36;;;;;;;4.15;2.75;;;;;;;;;;4968352;28;20706;-76
2022/03/06 10:37:02;;;;;;;3.40;2.22;;;;;;;;;;4970129;28;20038;-76
2022/03/06 10:39:29;;;;;;;3.25;2.28;;;;;;;;;;4969841;28;20573;-76
2022/03/06 10:41:56;;;;;;;3.03;2.38;;;;;;;;;;4972320;28;20042;-76
2022/03/06 10:44:23;;;;;;;3.53;2.90;;;;;;;;;;4974880;28;20034;-76
2022/03/06 10:46:59;;;;;;;4.00;2.60;;;;;;;;;;4958693;28;20496;-76
2022/03/06 10:49:26;;;;;;;4.60;2.60;;;;;;;;;;4971242;28;20433;-76
2022/03/06 10:51:52;;;;;;;5.60;2.15;;;;;;;;;;4979271;28;20056;-81
2022/03/06 10:54:18;;;;;;;4.63;2.30;;;;;;;;;;4952043;28;20050;-76
2022/03/06 10:56:49;;;;;;;3.10;2.45;;;;;;;;;;4976844;28;20045;-76
2022/03/06 10:59:17;;;;;;;5.30;2.45;;;;;;;;;;4969722;28;20048;-76
2022/03/06 11:01:44;;;;;;;3.78;2.50;;;;;;;;;;4953951;28;20484;-76
2022/03/06 11:04:10;;;;;;;3.20;2.60;;;;;;;;;;4974148;28;20057;-76
2022/03/06 11:06:40;;;;;;;3.35;2.40;;;;;;;;;;4974472;28;20054;-76
2022/03/06 11:09:09;;;;;;;3.33;2.38;;;;;;;;;;4975832;28;20050;-76
2022/03/06 11:11:35;;;;;;;2.92;2.40;;;;;;;;;;4975823;28;20461;-76
2022/03/06 11:14:01;;;;;;;6.00;3.05;;;;;;;;;;4970807;28;20125;-76
2022/03/06 11:16:28;;;;;;;4.38;2.60;;;;;;;;;;4959341;28;20042;-76
2022/03/06 11:18:55;;;;;;;2.47;2.28;;;;;;;;;;4968132;28;20146;-76
2022/03/06 11:21:24;;;;;;;3.30;2.53;;;;;;;;;;4957648;23;20389;-86
2022/03/06 11:23:52;;;;;;;5.00;2.53;;;;;;;;;;4941669;29;20051;-85
2022/03/06 11:26:28;;;;;;;3.92;2.40;;;;;;;;;;4936396;29;20043;-85
2022/03/06 11:29:13;;;;;;;3.78;2.50;;;;;;;;;;4955918;29;20043;-85
2022/03/06 11:31:53;;;;;;;4.70;2.85;;;;;;;;;;4939997;29;20042;-86
2022/03/06 11:34:23;;;;;;;3.20;2.60;;;;;;;;;;4953094;29;20078;-85
2022/03/06 11:36:50;;;;;;;4.45;3.05;;;;;;;;;;4955852;29;20085;-85
2022/03/06 11:39:36;;;;;;;3.50;2.70;;;;;;;;;;4940128;29;20047;-85
2022/03/06 11:42:03;;;;;;;3.25;2.70;;;;;;;;;;4940102;29;20070;-85
2022/03/06 11:44:48;;;;;;;4.10;3.33;;;;;;;;;;4955738;29;20086;-84
2022/03/06 11:47:23;;;;;;;4.07;3.00;;;;;;;;;;4939683;29;20043;-84
2022/03/06 11:49:56;;;;;;;3.67;2.60;;;;;;;;;;4952445;29;20051;-84
2022/03/06 11:52:29;;;;;;;3.78;2.33;;;;;;;;;;4939648;29;20046;-85
2022/03/06 11:54:56;;;;;;;3.70;3.08;;;;;;;;;;4941348;29;20043;-85
2022/03/06 11:57:42;;;;;;;4.40;2.70;;;;;;;;;;4952629;29;20169;-86
2022/03/06 12:00:17;;;;;;;4.50;3.30;;;;;;;;;;4952311;29;20043;-86
2022/03/06 12:02:51;;;;;;;3.83;2.65;;;;;;;;;;4931015;29;20071;-85
2022/03/06 12:05:17;;;;;;;3.85;2.60;;;;;;;;;;4923360;29;20502;-85
2022/03/06 12:07:46;;;;;;;3.40;2.80;;;;;;;;;;4946421;29;20121;-84
2022/03/06 12:10:13;;;;;;;6.75;2.97;;;;;;;;;;4955185;29;20042;-84
2022/03/06 12:12:39;;;;;;;5.47;3.08;;;;;;;;;;4955430;29;20043;-85
2022/03/06 12:15:16;;;;;;;3.40;2.92;;;;;;;;;;4955306;29;20090;-85
2022/03/06 12:17:42;;;;;;;4.32;3.08;;;;;;;;;;4960360;28;20041;-84
2022/03/06 12:20:08;;;;;;;3.88;2.70;;;;;;;;;;4957888;28;20132;-85
2022/03/06 12:22:51;;;;;;;4.78;3.38;;;;;;;;;;4954052;29;20517;-84
2022/03/06 12:25:19;;;;;;;5.40;3.00;;;;;;;;;;4954363;28;20043;-83
2022/03/06 12:28:03;;;;;;;4.38;2.90;;;;;;;;;;4955285;29;20043;-83
2022/03/06 12:30:30;;;;;;;4.80;3.10;;;;;;;;;;4927390;29;20043;-83
2022/03/06 12:32:56;;;;;;;4.60;3.00;;;;;;;;;;4932627;29;20086;-83
2022/03/06 12:35:25;;;;;;;6.13;3.17;;;;;;;;;;4955285;29;20498;-83
2022/03/06 12:37:51;;;;;;;3.70;2.85;;;;;;;;;;4949449;29;20049;-84
2022/03/06 12:40:21;;;;;;;4.80;3.47;;;;;;;;;;4954213;29;20047;-85
2022/03/06 12:42:50;;;;;;;4.75;2.85;;;;;;;;;;4954751;29;20055;-85
2022/03/06 12:45:17;;;;;;;4.15;3.03;;;;;;;;;;4940843;29;20047;-85
2022/03/06 12:47:45;;;;;;;4.57;2.90;;;;;;;;;;4954367;29;20050;-85
2022/03/06 12:50:16;;;;;;;5.88;3.30;;;;;;;;;;4954099;28;20050;-83
2022/03/06 12:52:42;;;;;;;4.90;2.85;;;;;;;;;;4973735;28;20066;-84
2022/03/06 12:55:16;;;;;;;5.90;3.13;;;;;;;;;;4964756;28;20421;-84
2022/03/06 12:57:44;;;;;;;4.60;2.72;;;;;;;;;;4955162;29;20043;-84
2022/03/06 13:00:12;;;;;;;3.45;3.10;;;;;;;;;;4955447;28;20095;-85
2022/03/06 13:02:38;;;;;;;4.22;3.15;;;;;;;;;;4954967;29;20047;-84
2022/03/06 13:05:04;;;;;;;3.95;2.88;;;;;;;;;;4955638;29;20074;-84
2022/03/06 13:07:31;;;;;;;4.75;2.80;;;;;;;;;;4938739;29;20039;-85
2022/03/06 13:09:58;;;;;;;5.00;2.92;;;;;;;;;;4943006;29;20043;-84
2022/03/06 13:12:27;;;;;;;3.35;2.80;;;;;;;;;;4959806;29;20394;-84
2022/03/06 13:14:53;;;;;;;5.90;3.30;;;;;;;;;;4957525;28;20063;-85
2022/03/06 13:17:20;;;;;;;4.38;3.03;;;;;;;;;;4945816;29;20045;-85
2022/03/06 13:19:47;;;;;;;4.38;3.38;;;;;;;;;;4949867;29;20082;-84
2022/03/06 13:22:15;;;;;;;5.20;2.90;;;;;;;;;;4940850;29;20062;-84
2022/03/06 13:24:42;;;;;;;3.65;2.85;;;;;;;;;;4953939;29;20058;-84
2022/03/06 13:27:08;;;;;;;4.13;3.22;;;;;;;;;;4969601;28;20126;-83
2022/03/06 13:29:34;;;;;;;3.42;3.05;;;;;;;;;;4941884;28;20066;-84
2022/03/06 13:32:00;;;;;;;6.00;3.28;;;;;;;;;;4939363;29;20087;-84
2022/03/06 13:34:26;;;;;;;3.72;3.17;;;;;;;;;;4957114;29;20085;-83
2022/03/06 13:36:52;;;;;;;3.75;3.10;;;;;;;;;;4937085;29;20067;-84
2022/03/06 13:39:21;;;;;;;8.25;3.53;;;;;;;;;;4963058;29;20053;-85
2022/03/06 13:41:55;;;;;;;4.47;3.00;;;;;;;;;;4962425;28;20069;-85
2022/03/06 13:44:21;;;;;;;6.30;3.42;;;;;;;;;;4962121;28;20039;-83
2022/03/06 13:46:47;;;;;;;5.32;2.78;;;;;;;;;;4955071;28;20038;-83
2022/03/06 13:49:17;;;;;;;6.82;3.03;;;;;;;;;;4958280;28;20051;-84
2022/03/06 13:51:44;;;;;;;5.50;3.38;;;;;;;;;;4955954;28;20131;-85
2022/03/06 13:54:10;;;;;;;5.45;3.40;;;;;;;;;;4962335;28;20031;-86
2022/03/06 13:56:37;;;;;;;3.20;2.63;;;;;;;;;;4966080;28;20050;-84
2022/03/06 13:59:04;;;;;;;3.53;3.00;;;;;;;;;;4957098;28;20059;-85
2022/03/06 14:01:31;;;;;;;5.13;3.22;;;;;;;;;;4956256;29;20079;-84
2022/03/06 14:03:58;;;;;;;4.38;3.10;;;;;;;;;;4958271;28;20039;-84
2022/03/06 14:06:32;;;;;;;4.25;2.88;;;;;;;;;;4964982;28;20055;-84
2022/03/06 14:09:00;;;;;;;4.65;3.00;;;;;;;;;;4957131;28;20039;-84
2022/03/06 14:11:27;;;;;;;5.40;2.90;;;;;;;;;;4961881;28;20501;-84
2022/03/06 14:13:56;;;;;;;7.43;3.30;;;;;;;;;;4946813;28;20106;-84
2022/03/06 14:16:22;;;;;;;4.40;2.90;;;;;;;;;;4966274;28;20123;-84
2022/03/06 14:18:53;;;;;;;4.55;3.30;;;;;;;;;;4968359;28;20050;-84
2022/03/06 14:21:22;;;;;;;4.38;3.00;;;;;;;;;;4959439;29;20098;-85
2022/03/06 14:23:58;;;;;;;3.72;3.03;;;;;;;;;;4942675;29;20047;-83
2022/03/06 14:26:26;;;;;;;5.20;3.20;;;;;;;;;;4946643;29;20044;-84
2022/03/06 14:28:58;;;;;;;7.15;2.85;;;;;;;;;;4958774;29;20378;-85
2022/03/06 14:31:25;;;;;;;6.30;3.05;;;;;;;;;;4958839;28;20508;-85
2022/03/06 14:33:51;;;;;;;5.35;2.88;;;;;;;;;;4972200;28;20046;-84
2022/03/06 14:36:21;;;;;;;6.18;2.80;;;;;;;;;;4955312;28;20044;-85